sensor_id;sensor_type;location;lat;lon;timestamp;temperature;humidity
8676;DHT22;4375;52.486;13.424;2022-10-30T00:01:55;15.60;99.90
8676;DHT22;4375;52.486;13.424;2022-10-30T00:04:21;15.60;99.90
8676;DHT22;4375;52.486;13.424;2022-10-30T00:06:47;15.60;99.90
8676;DHT22;4375;52.486;13.424;2022-10-30T00:09:13;15.60;99.90
8676;DHT22;4375;52.486;13.424;2022-10-30T00:11:39;15.60;99.90
8676;DHT22;4375;52.486;13.424;2022-10-30T00:14:06;15.50;99.90
8676;DHT22;4375;52.486;13.424;2022-10-30T00:16:32;15.50;99.90
8676;DHT22;4375;52.486;13.424;2022-10-30T00:18:57;15.50;99.90
8676;DHT22;4375;52.486;13.424;2022-10-30T00:21:23;15.50;99.90
8676;DHT22;4375;52.486;13.424;2022-10-30T00:23:50;15.40;99.90
8676;DHT22;4375;52.486;13.424;2022-10-30T00:26:19;15.40;99.90
8676;DHT22;4375;52.486;13.424;2022-10-30T00:28:51;15.40;99.90
8676;DHT22;4375;52.486;13.424;2022-10-30T00:31:18;15.40;99.90
8676;DHT22;4375;52.486;13.424;2022-10-30T00:33:48;15.30;99.90
8676;DHT22;4375;52.486;13.424;2022-10-30T00:36:13;15.30;99.90
8676;DHT22;4375;52.486;13.424;2022-10-30T00:38:39;15.20;99.90
8676;DHT22;4375;52.486;13.424;2022-10-30T00:41:04;15.20;99.90
8676;DHT22;4375;52.486;13.424;2022-10-30T00:43:35;15.20;99.90
8676;DHT22;4375;52.486;13.424;2022-10-30T00:46:12;15.20;99.90
8676;DHT22;4375;52.486;13.424;2022-10-30T00:48:40;15.20;99.90
8676;DHT22;4375;52.486;13.424;2022-10-30T00:51:08;15.20;99.90
8676;DHT22;4375;52.486;13.424;2022-10-30T00:53:35;15.20;99.90
8676;DHT22;4375;52.486;13.424;2022-10-30T00:56:05;15.10;99.90
8676;DHT22;4375;52.486;13.424;2022-10-30T00:58:35;15.10;99.90
8676;DHT22;4375;52.486;13.424;2022-10-30T01:01:07;15.00;99.90
8676;DHT22;4375;52.486;13.424;2022-10-30T01:03:35;15.00;99.90
8676;DHT22;4375;52.486;13.424;2022-10-30T01:06:04;14.90;99.90
8676;DHT22;4375;52.486;13.424;2022-10-30T01:08:32;14.90;99.90
8676;DHT22;4375;52.486;13.424;2022-10-30T01:10:59;15.00;99.90
8676;DHT22;4375;52.486;13.424;2022-10-30T01:13:27;14.90;99.90
8676;DHT22;4375;52.486;13.424;2022-10-30T01:16:23;14.90;99.90
8676;DHT22;4375;52.486;13.424;2022-10-30T01:27:41;14.80;99.90
8676;DHT22;4375;52.486;13.424;2022-10-30T01:30:10;14.80;99.90
8676;DHT22;4375;52.486;13.424;2022-10-30T01:38:51;14.70;99.90
8676;DHT22;4375;52.486;13.424;2022-10-30T01:41:18;14.60;99.90
8676;DHT22;4375;52.486;13.424;2022-10-30T01:43:45;14.60;99.90
8676;DHT22;4375;52.486;13.424;2022-10-30T01:46:50;14.60;99.90
8676;DHT22;4375;52.486;13.424;2022-10-30T01:52:18;14.50;99.90
8676;DHT22;4375;52.486;13.424;2022-10-30T01:57:54;14.50;99.90
8676;DHT22;4375;52.486;13.424;2022-10-30T02:00:23;14.50;99.90
8676;DHT22;4375;52.486;13.424;2022-10-30T02:02:50;14.40;99.90
8676;DHT22;4375;52.486;13.424;2022-10-30T02:05:41;14.40;99.90
8676;DHT22;4375;52.486;13.424;2022-10-30T02:08:07;14.40;99.90
8676;DHT22;4375;52.486;13.424;2022-10-30T02:10:34;14.40;99.90
8676;DHT22;4375;52.486;13.424;2022-10-30T02:13:01;14.30;99.90
8676;DHT22;4375;52.486;13.424;2022-10-30T02:15:27;14.20;99.90
8676;DHT22;4375;52.486;13.424;2022-10-30T02:17:53;14.20;99.90
8676;DHT22;4375;52.486;13.424;2022-10-30T02:20:20;14.20;99.90
8676;DHT22;4375;52.486;13.424;2022-10-30T02:22:46;14.30;99.90
8676;DHT22;4375;52.486;13.424;2022-10-30T02:25:12;14.30;99.90
8676;DHT22;4375;52.486;13.424;2022-10-30T02:27:38;14.20;99.90
8676;DHT22;4375;52.486;13.424;2022-10-30T02:30:05;14.10;99.90
8676;DHT22;4375;52.486;13.424;2022-10-30T02:32:31;14.10;99.90
8676;DHT22;4375;52.486;13.424;2022-10-30T02:34:56;14.10;99.90
8676;DHT22;4375;52.486;13.424;2022-10-30T02:37:22;14.10;99.90
8676;DHT22;4375;52.486;13.424;2022-10-30T02:39:49;14.20;99.90
8676;DHT22;4375;52.486;13.424;2022-10-30T02:42:14;14.20;99.90
8676;DHT22;4375;52.486;13.424;2022-10-30T02:44:40;14.10;99.90
8676;DHT22;4375;52.486;13.424;2022-10-30T02:47:06;14.10;99.90
8676;DHT22;4375;52.486;13.424;2022-10-30T02:49:31;14.10;99.90
8676;DHT22;4375;52.486;13.424;2022-10-30T02:51:57;14.10;99.90
8676;DHT22;4375;52.486;13.424;2022-10-30T02:54:22;14.10;99.90
8676;DHT22;4375;52.486;13.424;2022-10-30T02:56:48;14.00;99.90
8676;DHT22;4375;52.486;13.424;2022-10-30T02:59:14;14.00;99.90
8676;DHT22;4375;52.486;13.424;2022-10-30T03:01:40;14.00;99.90
8676;DHT22;4375;52.486;13.424;2022-10-30T03:04:05;14.00;99.90
8676;DHT22;4375;52.486;13.424;2022-10-30T03:06:31;14.10;99.90
8676;DHT22;4375;52.486;13.424;2022-10-30T03:08:57;14.10;99.90
8676;DHT22;4375;52.486;13.424;2022-10-30T03:11:23;14.00;99.90
8676;DHT22;4375;52.486;13.424;2022-10-30T03:13:48;14.10;99.90
8676;DHT22;4375;52.486;13.424;2022-10-30T03:16:24;14.10;99.90
8676;DHT22;4375;52.486;13.424;2022-10-30T03:18:51;14.10;99.90
8676;DHT22;4375;52.486;13.424;2022-10-30T03:21:19;14.10;99.90
8676;DHT22;4375;52.486;13.424;2022-10-30T03:23:45;14.20;99.90
8676;DHT22;4375;52.486;13.424;2022-10-30T03:26:10;14.10;99.90
8676;DHT22;4375;52.486;13.424;2022-10-30T03:28:36;14.10;99.90
8676;DHT22;4375;52.486;13.424;2022-10-30T03:31:07;14.10;99.90
8676;DHT22;4375;52.486;13.424;2022-10-30T03:33:34;14.10;99.90
8676;DHT22;4375;52.486;13.424;2022-10-30T03:36:00;14.10;99.90
8676;DHT22;4375;52.486;13.424;2022-10-30T03:38:26;14.10;99.90
8676;DHT22;4375;52.486;13.424;2022-10-30T03:40:52;14.00;99.90
8676;DHT22;4375;52.486;13.424;2022-10-30T03:43:18;14.00;99.90
8676;DHT22;4375;52.486;13.424;2022-10-30T03:45:51;14.00;99.90
8676;DHT22;4375;52.486;13.424;2022-10-30T03:48:18;14.00;99.90
8676;DHT22;4375;52.486;13.424;2022-10-30T03:50:45;14.00;99.90
8676;DHT22;4375;52.486;13.424;2022-10-30T03:53:11;14.00;99.90
8676;DHT22;4375;52.486;13.424;2022-10-30T03:55:37;14.10;99.90
8676;DHT22;4375;52.486;13.424;2022-10-30T03:58:04;14.20;99.90
8676;DHT22;4375;52.486;13.424;2022-10-30T04:00:30;14.20;99.90
8676;DHT22;4375;52.486;13.424;2022-10-30T04:02:56;14.20;99.90
8676;DHT22;4375;52.486;13.424;2022-10-30T04:05:23;14.20;99.90
8676;DHT22;4375;52.486;13.424;2022-10-30T04:07:54;14.20;99.90
8676;DHT22;4375;52.486;13.424;2022-10-30T04:10:20;14.30;99.90
8676;DHT22;4375;52.486;13.424;2022-10-30T04:12:46;14.30;99.90
8676;DHT22;4375;52.486;13.424;2022-10-30T04:15:11;14.40;99.90
8676;DHT22;4375;52.486;13.424;2022-10-30T04:17:37;14.40;99.90
8676;DHT22;4375;52.486;13.424;2022-10-30T04:20:03;14.40;99.90
8676;DHT22;4375;52.486;13.424;2022-10-30T04:22:29;14.50;99.90
8676;DHT22;4375;52.486;13.424;2022-10-30T04:24:54;14.40;99.90
8676;DHT22;4375;52.486;13.424;2022-10-30T04:27:20;14.40;99.90
8676;DHT22;4375;52.486;13.424;2022-10-30T04:29:46;14.50;99.90
8676;DHT22;4375;52.486;13.424;2022-10-30T04:32:12;14.50;99.90
8676;DHT22;4375;52.486;13.424;2022-10-30T04:34:38;14.50;99.90
8676;DHT22;4375;52.486;13.424;2022-10-30T04:37:04;14.60;99.90
8676;DHT22;4375;52.486;13.424;2022-10-30T04:39:30;14.50;99.90
8676;DHT22;4375;52.486;13.424;2022-10-30T04:41:56;14.60;99.90
8676;DHT22;4375;52.486;13.424;2022-10-30T04:44:22;14.50;99.90
8676;DHT22;4375;52.486;13.424;2022-10-30T04:46:47;14.40;99.90
8676;DHT22;4375;52.486;13.424;2022-10-30T04:49:13;14.40;99.90
8676;DHT22;4375;52.486;13.424;2022-10-30T04:51:38;14.50;99.90
8676;DHT22;4375;52.486;13.424;2022-10-30T04:54:04;14.40;99.90
8676;DHT22;4375;52.486;13.424;2022-10-30T04:56:30;14.30;99.90
8676;DHT22;4375;52.486;13.424;2022-10-30T04:59:00;14.30;99.90
8676;DHT22;4375;52.486;13.424;2022-10-30T05:01:26;14.30;99.90
8676;DHT22;4375;52.486;13.424;2022-10-30T05:03:51;14.30;99.90
8676;DHT22;4375;52.486;13.424;2022-10-30T05:06:35;14.30;99.90
8676;DHT22;4375;52.486;13.424;2022-10-30T05:09:01;14.30;99.90
8676;DHT22;4375;52.486;13.424;2022-10-30T05:11:26;14.20;99.90
8676;DHT22;4375;52.486;13.424;2022-10-30T05:13:52;14.20;99.90
8676;DHT22;4375;52.486;13.424;2022-10-30T05:16:17;14.30;99.90
8676;DHT22;4375;52.486;13.424;2022-10-30T05:18:43;14.30;99.90
8676;DHT22;4375;52.486;13.424;2022-10-30T05:21:09;14.30;99.90
8676;DHT22;4375;52.486;13.424;2022-10-30T05:23:34;14.30;99.90
8676;DHT22;4375;52.486;13.424;2022-10-30T05:26:00;14.30;99.90
8676;DHT22;4375;52.486;13.424;2022-10-30T05:28:26;14.30;99.90
8676;DHT22;4375;52.486;13.424;2022-10-30T05:30:52;14.30;99.90
8676;DHT22;4375;52.486;13.424;2022-10-30T05:33:18;14.30;99.90
8676;DHT22;4375;52.486;13.424;2022-10-30T05:35:44;14.30;99.90
8676;DHT22;4375;52.486;13.424;2022-10-30T05:38:10;14.30;99.90
8676;DHT22;4375;52.486;13.424;2022-10-30T05:40:36;14.30;99.90
8676;DHT22;4375;52.486;13.424;2022-10-30T05:43:03;14.30;99.90
8676;DHT22;4375;52.486;13.424;2022-10-30T05:45:29;14.30;99.90
8676;DHT22;4375;52.486;13.424;2022-10-30T05:47:56;14.30;99.90
8676;DHT22;4375;52.486;13.424;2022-10-30T05:50:22;14.40;99.90
8676;DHT22;4375;52.486;13.424;2022-10-30T05:52:48;14.40;99.90
8676;DHT22;4375;52.486;13.424;2022-10-30T05:55:14;14.40;99.90
8676;DHT22;4375;52.486;13.424;2022-10-30T05:57:39;14.40;99.90
8676;DHT22;4375;52.486;13.424;2022-10-30T06:00:06;14.40;99.90
8676;DHT22;4375;52.486;13.424;2022-10-30T06:02:32;14.40;99.90
8676;DHT22;4375;52.486;13.424;2022-10-30T06:04:57;14.40;99.90
8676;DHT22;4375;52.486;13.424;2022-10-30T06:07:23;14.40;99.90
8676;DHT22;4375;52.486;13.424;2022-10-30T06:09:49;14.50;99.90
8676;DHT22;4375;52.486;13.424;2022-10-30T06:12:14;14.50;99.90
8676;DHT22;4375;52.486;13.424;2022-10-30T06:14:40;14.50;99.90
8676;DHT22;4375;52.486;13.424;2022-10-30T06:17:05;14.60;99.90
8676;DHT22;4375;52.486;13.424;2022-10-30T06:19:31;14.60;99.90
8676;DHT22;4375;52.486;13.424;2022-10-30T06:21:56;14.60;99.90
8676;DHT22;4375;52.486;13.424;2022-10-30T06:24:22;14.70;99.90
8676;DHT22;4375;52.486;13.424;2022-10-30T06:26:48;14.70;99.90
8676;DHT22;4375;52.486;13.424;2022-10-30T06:29:15;14.70;99.90
8676;DHT22;4375;52.486;13.424;2022-10-30T06:31:41;14.80;99.90
8676;DHT22;4375;52.486;13.424;2022-10-30T06:34:06;14.90;99.90
8676;DHT22;4375;52.486;13.424;2022-10-30T06:36:32;14.90;99.90
8676;DHT22;4375;52.486;13.424;2022-10-30T06:38:58;14.90;99.90
8676;DHT22;4375;52.486;13.424;2022-10-30T06:41:23;14.90;99.90
8676;DHT22;4375;52.486;13.424;2022-10-30T06:43:49;14.90;99.90
8676;DHT22;4375;52.486;13.424;2022-10-30T06:46:15;14.90;99.90
8676;DHT22;4375;52.486;13.424;2022-10-30T06:48:40;15.00;99.90
8676;DHT22;4375;52.486;13.424;2022-10-30T06:51:06;15.00;99.90
8676;DHT22;4375;52.486;13.424;2022-10-30T06:53:32;15.10;99.90
8676;DHT22;4375;52.486;13.424;2022-10-30T06:56:00;15.10;99.90
8676;DHT22;4375;52.486;13.424;2022-10-30T06:58:26;15.20;99.90
8676;DHT22;4375;52.486;13.424;2022-10-30T07:00:52;15.10;99.90
8676;DHT22;4375;52.486;13.424;2022-10-30T07:03:18;15.20;99.90
8676;DHT22;4375;52.486;13.424;2022-10-30T07:05:44;15.20;99.90
8676;DHT22;4375;52.486;13.424;2022-10-30T07:08:09;15.20;99.90
8676;DHT22;4375;52.486;13.424;2022-10-30T07:10:35;15.30;99.90
8676;DHT22;4375;52.486;13.424;2022-10-30T07:13:01;15.30;99.90
8676;DHT22;4375;52.486;13.424;2022-10-30T07:15:27;15.30;99.90
8676;DHT22;4375;52.486;13.424;2022-10-30T07:17:57;15.30;99.90
8676;DHT22;4375;52.486;13.424;2022-10-30T07:20:25;15.30;99.90
8676;DHT22;4375;52.486;13.424;2022-10-30T07:22:51;15.30;99.90
8676;DHT22;4375;52.486;13.424;2022-10-30T07:25:17;15.20;99.90
8676;DHT22;4375;52.486;13.424;2022-10-30T07:27:47;15.20;99.90
8676;DHT22;4375;52.486;13.424;2022-10-30T07:30:15;15.10;99.90
8676;DHT22;4375;52.486;13.424;2022-10-30T07:32:41;15.10;99.90
8676;DHT22;4375;52.486;13.424;2022-10-30T07:35:07;15.20;99.90
8676;DHT22;4375;52.486;13.424;2022-10-30T07:37:33;15.20;99.90
8676;DHT22;4375;52.486;13.424;2022-10-30T07:39:59;15.20;99.90
8676;DHT22;4375;52.486;13.424;2022-10-30T07:42:24;15.20;99.90
8676;DHT22;4375;52.486;13.424;2022-10-30T07:44:50;15.20;99.90
8676;DHT22;4375;52.486;13.424;2022-10-30T07:47:16;15.20;99.90
8676;DHT22;4375;52.486;13.424;2022-10-30T07:49:41;15.30;99.90
8676;DHT22;4375;52.486;13.424;2022-10-30T07:52:07;15.30;99.90
8676;DHT22;4375;52.486;13.424;2022-10-30T07:54:32;15.40;99.90
8676;DHT22;4375;52.486;13.424;2022-10-30T07:56:58;15.40;99.90
8676;DHT22;4375;52.486;13.424;2022-10-30T07:59:24;15.40;99.90
8676;DHT22;4375;52.486;13.424;2022-10-30T08:01:50;15.50;99.90
8676;DHT22;4375;52.486;13.424;2022-10-30T08:04:16;15.50;99.90
8676;DHT22;4375;52.486;13.424;2022-10-30T08:06:42;15.60;99.90
8676;DHT22;4375;52.486;13.424;2022-10-30T08:09:08;15.60;99.90
8676;DHT22;4375;52.486;13.424;2022-10-30T08:11:33;15.70;99.90
8676;DHT22;4375;52.486;13.424;2022-10-30T08:13:59;15.90;99.90
8676;DHT22;4375;52.486;13.424;2022-10-30T08:16:25;16.00;99.90
8676;DHT22;4375;52.486;13.424;2022-10-30T08:18:51;16.00;99.90
8676;DHT22;4375;52.486;13.424;2022-10-30T08:21:16;16.20;99.90
8676;DHT22;4375;52.486;13.424;2022-10-30T08:23:42;16.30;99.90
8676;DHT22;4375;52.486;13.424;2022-10-30T08:26:08;16.30;99.90
8676;DHT22;4375;52.486;13.424;2022-10-30T08:28:33;16.40;99.90
8676;DHT22;4375;52.486;13.424;2022-10-30T08:31:00;16.40;99.90
8676;DHT22;4375;52.486;13.424;2022-10-30T08:33:26;16.40;99.90
8676;DHT22;4375;52.486;13.424;2022-10-30T08:35:55;16.40;99.90
8676;DHT22;4375;52.486;13.424;2022-10-30T08:38:21;16.40;99.90
8676;DHT22;4375;52.486;13.424;2022-10-30T08:40:47;16.50;99.90
8676;DHT22;4375;52.486;13.424;2022-10-30T08:43:13;16.50;99.90
8676;DHT22;4375;52.486;13.424;2022-10-30T08:45:39;16.50;99.90
8676;DHT22;4375;52.486;13.424;2022-10-30T08:48:10;16.60;99.90
8676;DHT22;4375;52.486;13.424;2022-10-30T08:50:36;16.70;99.90
8676;DHT22;4375;52.486;13.424;2022-10-30T08:53:04;16.90;99.90
8676;DHT22;4375;52.486;13.424;2022-10-30T08:55:31;17.10;99.90
8676;DHT22;4375;52.486;13.424;2022-10-30T08:57:57;17.20;99.90
8676;DHT22;4375;52.486;13.424;2022-10-30T09:00:23;17.40;99.90
8676;DHT22;4375;52.486;13.424;2022-10-30T09:02:49;17.50;99.90
8676;DHT22;4375;52.486;13.424;2022-10-30T09:05:15;17.60;99.90
8676;DHT22;4375;52.486;13.424;2022-10-30T09:07:40;17.60;99.90
8676;DHT22;4375;52.486;13.424;2022-10-30T09:10:06;17.70;99.90
8676;DHT22;4375;52.486;13.424;2022-10-30T09:12:35;17.70;99.90
8676;DHT22;4375;52.486;13.424;2022-10-30T09:15:01;17.70;99.90
8676;DHT22;4375;52.486;13.424;2022-10-30T09:17:26;17.70;99.90
8676;DHT22;4375;52.486;13.424;2022-10-30T09:19:52;17.70;99.90
8676;DHT22;4375;52.486;13.424;2022-10-30T09:22:18;17.60;99.90
8676;DHT22;4375;52.486;13.424;2022-10-30T09:24:44;17.50;99.90
8676;DHT22;4375;52.486;13.424;2022-10-30T09:27:10;17.50;99.90
8676;DHT22;4375;52.486;13.424;2022-10-30T09:29:36;17.60;99.90
8676;DHT22;4375;52.486;13.424;2022-10-30T09:32:02;17.70;99.90
8676;DHT22;4375;52.486;13.424;2022-10-30T09:34:29;17.80;99.90
8676;DHT22;4375;52.486;13.424;2022-10-30T09:36:55;17.90;99.90
8676;DHT22;4375;52.486;13.424;2022-10-30T09:39:21;18.00;99.90
8676;DHT22;4375;52.486;13.424;2022-10-30T09:50:51;18.20;99.90
8676;DHT22;4375;52.486;13.424;2022-10-30T09:56:14;18.30;99.90
8676;DHT22;4375;52.486;13.424;2022-10-30T10:01:18;18.30;99.90
8676;DHT22;4375;52.486;13.424;2022-10-30T10:04:23;18.40;99.90
8676;DHT22;4375;52.486;13.424;2022-10-30T10:07:01;18.40;99.90
8676;DHT22;4375;52.486;13.424;2022-10-30T10:09:29;18.50;99.90
8676;DHT22;4375;52.486;13.424;2022-10-30T10:11:59;18.50;99.90
8676;DHT22;4375;52.486;13.424;2022-10-30T10:14:41;18.50;99.90
8676;DHT22;4375;52.486;13.424;2022-10-30T10:17:12;18.60;99.90
8676;DHT22;4375;52.486;13.424;2022-10-30T10:19:43;18.60;99.90
8676;DHT22;4375;52.486;13.424;2022-10-30T10:22:40;18.60;99.90
8676;DHT22;4375;52.486;13.424;2022-10-30T10:25:13;18.70;99.90
8676;DHT22;4375;52.486;13.424;2022-10-30T10:30:19;18.70;99.90
8676;DHT22;4375;52.486;13.424;2022-10-30T10:36:08;18.80;99.90
8676;DHT22;4375;52.486;13.424;2022-10-30T10:52:13;19.00;99.90
8676;DHT22;4375;52.486;13.424;2022-10-30T10:54:51;19.00;99.90
8676;DHT22;4375;52.486;13.424;2022-10-30T10:57:27;19.00;99.90
8676;DHT22;4375;52.486;13.424;2022-10-30T11:00:20;19.10;99.90
8676;DHT22;4375;52.486;13.424;2022-10-30T11:03:09;19.10;99.90
8676;DHT22;4375;52.486;13.424;2022-10-30T11:06:29;19.10;99.90
8676;DHT22;4375;52.486;13.424;2022-10-30T11:08:30;19.20;99.90
8676;DHT22;4375;52.486;13.424;2022-10-30T11:10:58;19.20;99.90
8676;DHT22;4375;52.486;13.424;2022-10-30T11:13:39;19.20;99.90
8676;DHT22;4375;52.486;13.424;2022-10-30T11:16:20;19.30;99.90
8676;DHT22;4375;52.486;13.424;2022-10-30T11:18:54;19.30;99.90
8676;DHT22;4375;52.486;13.424;2022-10-30T11:21:23;19.30;99.90
8676;DHT22;4375;52.486;13.424;2022-10-30T11:23:50;19.40;99.90
8676;DHT22;4375;52.486;13.424;2022-10-30T11:31:32;19.40;99.90
8676;DHT22;4375;52.486;13.424;2022-10-30T11:36:46;19.50;99.90
8676;DHT22;4375;52.486;13.424;2022-10-30T11:39:24;19.60;99.90
8676;DHT22;4375;52.486;13.424;2022-10-30T11:42:15;19.60;99.90
8676;DHT22;4375;52.486;13.424;2022-10-30T11:44:49;19.70;99.90
8676;DHT22;4375;52.486;13.424;2022-10-30T11:47:35;19.80;99.90
8676;DHT22;4375;52.486;13.424;2022-10-30T11:50:05;19.80;99.90
8676;DHT22;4375;52.486;13.424;2022-10-30T11:52:37;19.80;99.90
8676;DHT22;4375;52.486;13.424;2022-10-30T11:55:25;19.80;99.90
8676;DHT22;4375;52.486;13.424;2022-10-30T11:57:54;19.80;99.90
8676;DHT22;4375;52.486;13.424;2022-10-30T12:00:31;19.80;99.90
8676;DHT22;4375;52.486;13.424;2022-10-30T12:02:58;19.80;99.90
8676;DHT22;4375;52.486;13.424;2022-10-30T12:05:39;19.90;99.90
8676;DHT22;4375;52.486;13.424;2022-10-30T12:10:43;19.90;99.90
8676;DHT22;4375;52.486;13.424;2022-10-30T12:13:15;19.80;99.90
8676;DHT22;4375;52.486;13.424;2022-10-30T12:15:41;19.80;99.90
8676;DHT22;4375;52.486;13.424;2022-10-30T12:18:18;19.80;99.90
8676;DHT22;4375;52.486;13.424;2022-10-30T12:20:47;19.80;99.90
8676;DHT22;4375;52.486;13.424;2022-10-30T12:23:18;19.80;99.90
8676;DHT22;4375;52.486;13.424;2022-10-30T12:25:47;19.90;99.90
8676;DHT22;4375;52.486;13.424;2022-10-30T12:28:22;19.80;99.90
8676;DHT22;4375;52.486;13.424;2022-10-30T12:33:56;19.90;99.90
8676;DHT22;4375;52.486;13.424;2022-10-30T12:36:25;19.90;99.90
8676;DHT22;4375;52.486;13.424;2022-10-30T12:39:01;20.00;99.90
8676;DHT22;4375;52.486;13.424;2022-10-30T12:41:33;20.00;99.90
8676;DHT22;4375;52.486;13.424;2022-10-30T12:44:07;20.10;99.90
8676;DHT22;4375;52.486;13.424;2022-10-30T12:46:44;20.10;99.90
8676;DHT22;4375;52.486;13.424;2022-10-30T12:49:39;20.00;99.90
8676;DHT22;4375;52.486;13.424;2022-10-30T12:52:32;20.00;99.90
8676;DHT22;4375;52.486;13.424;2022-10-30T12:58:22;19.90;99.90
8676;DHT22;4375;52.486;13.424;2022-10-30T13:03:48;19.90;99.90
8676;DHT22;4375;52.486;13.424;2022-10-30T13:06:25;19.90;99.90
8676;DHT22;4375;52.486;13.424;2022-10-30T13:11:48;19.80;99.90
8676;DHT22;4375;52.486;13.424;2022-10-30T13:14:21;19.80;99.90
8676;DHT22;4375;52.486;13.424;2022-10-30T13:16:51;19.80;99.90
8676;DHT22;4375;52.486;13.424;2022-10-30T13:19:17;19.70;99.90
8676;DHT22;4375;52.486;13.424;2022-10-30T13:21:53;19.70;99.90
8676;DHT22;4375;52.486;13.424;2022-10-30T13:27:21;19.60;99.90
8676;DHT22;4375;52.486;13.424;2022-10-30T13:29:50;19.50;99.90
8676;DHT22;4375;52.486;13.424;2022-10-30T13:37:59;19.60;99.90
8676;DHT22;4375;52.486;13.424;2022-10-30T13:40:56;19.60;99.90
8676;DHT22;4375;52.486;13.424;2022-10-30T13:44:11;19.60;99.90
8676;DHT22;4375;52.486;13.424;2022-10-30T13:52:14;19.50;99.90
8676;DHT22;4375;52.486;13.424;2022-10-30T13:54:45;19.40;99.90
8676;DHT22;4375;52.486;13.424;2022-10-30T13:57:25;19.30;99.90
8676;DHT22;4375;52.486;13.424;2022-10-30T14:00:01;19.30;99.90
8676;DHT22;4375;52.486;13.424;2022-10-30T14:08:32;19.30;99.90
8676;DHT22;4375;52.486;13.424;2022-10-30T14:10:59;19.30;99.90
8676;DHT22;4375;52.486;13.424;2022-10-30T14:13:26;19.30;99.90
8676;DHT22;4375;52.486;13.424;2022-10-30T14:16:40;19.30;99.90
8676;DHT22;4375;52.486;13.424;2022-10-30T14:18:59;19.30;99.90
8676;DHT22;4375;52.486;13.424;2022-10-30T14:24:11;19.10;99.90
8676;DHT22;4375;52.486;13.424;2022-10-30T14:26:46;19.00;99.90
8676;DHT22;4375;52.486;13.424;2022-10-30T14:32:00;18.90;99.90
8676;DHT22;4375;52.486;13.424;2022-10-30T14:37:05;18.80;99.90
8676;DHT22;4375;52.486;13.424;2022-10-30T14:39:41;18.70;99.90
8676;DHT22;4375;52.486;13.424;2022-10-30T14:58:38;18.30;99.90
8676;DHT22;4375;52.486;13.424;2022-10-30T15:04:16;18.20;99.90
8676;DHT22;4375;52.486;13.424;2022-10-30T15:09:56;18.10;99.90
8676;DHT22;4375;52.486;13.424;2022-10-30T15:14:57;17.90;99.90
8676;DHT22;4375;52.486;13.424;2022-10-30T15:17:35;17.80;99.90
8676;DHT22;4375;52.486;13.424;2022-10-30T15:20:46;17.80;99.90
8676;DHT22;4375;52.486;13.424;2022-10-30T15:22:56;17.70;99.90
8676;DHT22;4375;52.486;13.424;2022-10-30T15:25:24;17.70;99.90
8676;DHT22;4375;52.486;13.424;2022-10-30T15:27:53;17.60;99.90
8676;DHT22;4375;52.486;13.424;2022-10-30T15:30:22;17.60;99.90
8676;DHT22;4375;52.486;13.424;2022-10-30T15:32:48;17.50;99.90
8676;DHT22;4375;52.486;13.424;2022-10-30T15:35:19;17.50;99.90
8676;DHT22;4375;52.486;13.424;2022-10-30T15:38:15;17.40;99.90
8676;DHT22;4375;52.486;13.424;2022-10-30T15:40:41;17.30;99.90
8676;DHT22;4375;52.486;13.424;2022-10-30T15:43:10;17.30;99.90
8676;DHT22;4375;52.486;13.424;2022-10-30T15:45:40;17.20;99.90
8676;DHT22;4375;52.486;13.424;2022-10-30T15:50:43;17.10;99.90
8676;DHT22;4375;52.486;13.424;2022-10-30T15:53:19;17.10;99.90
8676;DHT22;4375;52.486;13.424;2022-10-30T15:55:46;17.10;99.90
8676;DHT22;4375;52.486;13.424;2022-10-30T15:58:17;17.00;99.90
8676;DHT22;4375;52.486;13.424;2022-10-30T16:00:56;17.00;99.90
8676;DHT22;4375;52.486;13.424;2022-10-30T16:03:22;16.90;99.90
8676;DHT22;4375;52.486;13.424;2022-10-30T16:05:48;16.90;99.90
8676;DHT22;4375;52.486;13.424;2022-10-30T16:08:22;16.90;99.90
8676;DHT22;4375;52.486;13.424;2022-10-30T16:10:52;16.80;99.90
8676;DHT22;4375;52.486;13.424;2022-10-30T16:13:21;16.80;99.90
8676;DHT22;4375;52.486;13.424;2022-10-30T16:15:47;16.80;99.90
8676;DHT22;4375;52.486;13.424;2022-10-30T16:18:27;16.70;99.90
8676;DHT22;4375;52.486;13.424;2022-10-30T16:20:56;16.70;99.90
8676;DHT22;4375;52.486;13.424;2022-10-30T16:23:22;16.60;99.90
8676;DHT22;4375;52.486;13.424;2022-10-30T16:25:56;16.60;99.90
8676;DHT22;4375;52.486;13.424;2022-10-30T16:30:59;16.50;99.90
8676;DHT22;4375;52.486;13.424;2022-10-30T16:33:26;16.50;99.90
8676;DHT22;4375;52.486;13.424;2022-10-30T16:35:53;16.50;99.90
8676;DHT22;4375;52.486;13.424;2022-10-30T16:38:19;16.40;99.90
8676;DHT22;4375;52.486;13.424;2022-10-30T16:40:45;16.40;99.90
8676;DHT22;4375;52.486;13.424;2022-10-30T16:43:24;16.40;99.90
8676;DHT22;4375;52.486;13.424;2022-10-30T16:45:51;16.40;99.90
8676;DHT22;4375;52.486;13.424;2022-10-30T16:48:24;16.40;99.90
8676;DHT22;4375;52.486;13.424;2022-10-30T16:51:00;16.30;99.90
8676;DHT22;4375;52.486;13.424;2022-10-30T16:53:26;16.30;99.90
8676;DHT22;4375;52.486;13.424;2022-10-30T16:55:55;16.30;99.90
8676;DHT22;4375;52.486;13.424;2022-10-30T16:58:27;16.20;99.90
8676;DHT22;4375;52.486;13.424;2022-10-30T17:01:00;16.20;99.90
8676;DHT22;4375;52.486;13.424;2022-10-30T17:03:27;16.20;99.90
8676;DHT22;4375;52.486;13.424;2022-10-30T17:05:59;16.20;99.90
8676;DHT22;4375;52.486;13.424;2022-10-30T17:11:00;16.10;99.90
8676;DHT22;4375;52.486;13.424;2022-10-30T17:13:30;16.10;99.90
8676;DHT22;4375;52.486;13.424;2022-10-30T17:15:57;16.10;99.90
8676;DHT22;4375;52.486;13.424;2022-10-30T17:18:28;16.10;99.90
8676;DHT22;4375;52.486;13.424;2022-10-30T17:21:07;16.00;99.90
8676;DHT22;4375;52.486;13.424;2022-10-30T17:23:35;16.00;99.90
8676;DHT22;4375;52.486;13.424;2022-10-30T17:26:08;16.00;99.90
8676;DHT22;4375;52.486;13.424;2022-10-30T17:28:35;16.00;99.90
8676;DHT22;4375;52.486;13.424;2022-10-30T17:31:28;15.90;99.90
8676;DHT22;4375;52.486;13.424;2022-10-30T17:34:19;15.90;99.90
8676;DHT22;4375;52.486;13.424;2022-10-30T17:36:48;15.90;99.90
8676;DHT22;4375;52.486;13.424;2022-10-30T17:39:14;15.90;99.90
8676;DHT22;4375;52.486;13.424;2022-10-30T17:41:41;15.90;99.90
8676;DHT22;4375;52.486;13.424;2022-10-30T17:44:18;15.80;99.90
8676;DHT22;4375;52.486;13.424;2022-10-30T17:46:45;15.80;99.90
8676;DHT22;4375;52.486;13.424;2022-10-30T17:49:24;15.80;99.90
8676;DHT22;4375;52.486;13.424;2022-10-30T17:51:51;15.80;99.90
8676;DHT22;4375;52.486;13.424;2022-10-30T17:54:16;15.70;99.90
8676;DHT22;4375;52.486;13.424;2022-10-30T17:56:42;15.70;99.90
8676;DHT22;4375;52.486;13.424;2022-10-30T17:59:08;15.70;99.90
8676;DHT22;4375;52.486;13.424;2022-10-30T18:01:34;15.70;99.90
8676;DHT22;4375;52.486;13.424;2022-10-30T18:04:00;15.70;99.90
8676;DHT22;4375;52.486;13.424;2022-10-30T18:06:27;15.70;99.90
8676;DHT22;4375;52.486;13.424;2022-10-30T18:08:53;15.70;99.90
8676;DHT22;4375;52.486;13.424;2022-10-30T18:11:22;15.60;99.90
8676;DHT22;4375;52.486;13.424;2022-10-30T18:13:49;15.60;99.90
8676;DHT22;4375;52.486;13.424;2022-10-30T18:16:16;15.60;99.90
8676;DHT22;4375;52.486;13.424;2022-10-30T18:18:43;15.60;99.90